Terminal Aerodrome Forecast
Issued by NWS

Home | Current Version | Previous Version | Text Only | Print | Product List | Glossary On
Versions: 1 2 3 4 5 6 7 8 9 10 11 12 13 14 15 16
000
FTUS44 KSJT 280500
TAFJCT
TAF
KJCT 280520Z 2806/0106 08007KT 2SM -FZDZ BR OVC005
     FM280900 13009KT 1SM -FZDZ BR OVC002 WS020/18040KT
     FM281400 13006KT 3SM -DZ BR OVC005
     FM281700 15010KT 5SM BR OVC008=

USA.gov is the U.S. government's official web portal to all federal, state and local government web resources and services.